PWSweather.com
Personal Weather Stations
Station Observations
KCOGRAND2
Redlands, Southcamp Road & Dakota Circle, Grand Junction, CO 81507

Redlands, Southcamp Road & Dakota CircleGrand Junction, CO 81507

Lat: 39.055, Lon: -108.637

Elevation: 4870

Station Type: RadioShack WX200

Latest ConditionsUpdated 9:46:10 AM MDT Sunday, Apr 23, 2017
Currently Today's Max Today's Min Today's Average
Temperature 59.2°F15.1°C 59.2°F15.1°C 42.8°F6.0°C 47.6°F8.7°C
Dew Point -5537.2°C 10.0°F-12.2°C -4.5°F-20.3°C 1.9°F-16.7°C
Winds 7.0 mph NNW11.3 kmh NNW 8.0 mph N12.9 kmh N - 3.1 mph 5.0 kmh
Wind Gusts 9.2 mph14.8 kmh 12.5 mph20.1 kmh - -
Humidity - 22% 11% 16%
Pressure 25.01 in846.9 mb 25.10 in850.0 mb 25.01 in846.9 mb -
Hour Temp Dew Point Humidity Winds Wind Gusts Pressure Precip Precip Rate Daily Precip Total
09:46 AM 59.2°F15.1°C -5537.2°C - 7.0 mph NNW11.3 kmh NNW 9.2 mph14.8 kmh 25.01 in846.9 mb 0.00 in0.0 mm 0.00 in0.0 mm 0.00 in0.0 mm
09:41 AM 57.7°F14.3°C -5537.2°C - 8.0 mph NNW12.9 kmh NNW 11.2 mph18.0 kmh 25.01 in846.9 mb 0.00 in0.0 mm 0.00 in0.0 mm 0.00 in0.0 mm
09:36 AM 57.7°F14.3°C -5537.2°C - 8.0 mph N12.9 kmh N 12.5 mph20.1 kmh 25.01 in846.9 mb 0.00 in0.0 mm 0.00 in0.0 mm 0.00 in0.0 mm
09:31 AM 56.8°F13.8°C -5537.2°C - 8.0 mph NNW12.9 kmh NNW 12.1 mph19.5 kmh 25.01 in846.9 mb 0.00 in0.0 mm 0.00 in0.0 mm 0.00 in0.0 mm
09:26 AM 56.7°F13.7°C -5537.2°C - 8.0 mph NNW12.9 kmh NNW 11.6 mph18.7 kmh 25.01 in846.9 mb 0.00 in0.0 mm 0.00 in0.0 mm 0.00 in0.0 mm
09:21 AM 56.1°F13.4°C -5537.2°C - 7.0 mph NNW11.3 kmh NNW 11.6 mph18.7 kmh 25.01 in846.9 mb 0.00 in0.0 mm 0.00 in0.0 mm 0.00 in0.0 mm
09:16 AM 56.5°F13.6°C -5537.2°C - 6.0 mph NNW9.7 kmh NNW 11.6 mph18.7 kmh 25.04 in848.0 mb 0.00 in0.0 mm 0.00 in0.0 mm 0.00 in0.0 mm
09:11 AM 55.8°F13.2°C -5537.2°C - 6.0 mph N9.7 kmh N 10.1 mph16.3 kmh 25.04 in848.0 mb 0.00 in0.0 mm 0.00 in0.0 mm 0.00 in0.0 mm
09:06 AM 55.8°F13.2°C -5537.2°C - 5.0 mph N8.0 kmh N 8.7 mph14.0 kmh 25.04 in848.0 mb 0.00 in0.0 mm 0.00 in0.0 mm 0.00 in0.0 mm
09:01 AM 55.8°F13.2°C -5537.2°C - 3.0 mph N4.8 kmh N 7.8 mph12.6 kmh 25.04 in848.0 mb 0.00 in0.0 mm 0.00 in0.0 mm 0.00 in0.0 mm
08:56 AM 55.0°F12.8°C -5537.2°C - 2.0 mph N3.2 kmh N 6.7 mph10.8 kmh 25.04 in848.0 mb 0.00 in0.0 mm 0.00 in0.0 mm 0.00 in0.0 mm
08:51 AM 54.3°F12.4°C -5537.2°C - 2.0 mph NE3.2 kmh NE 5.4 mph8.7 kmh 25.04 in848.0 mb 0.00 in0.0 mm 0.00 in0.0 mm 0.00 in0.0 mm
08:46 AM 53.6°F12.0°C -5537.2°C - 2.0 mph NE3.2 kmh NE 5.4 mph8.7 kmh 25.04 in848.0 mb 0.00 in0.0 mm 0.00 in0.0 mm 0.00 in0.0 mm
08:41 AM 53.2°F11.8°C -5537.2°C - 2.0 mph N3.2 kmh N 4.5 mph7.2 kmh 25.04 in848.0 mb 0.00 in0.0 mm 0.00 in0.0 mm 0.00 in0.0 mm
08:36 AM 52.5°F11.4°C -0.4°F-18.0°C 11% 3.0 mph NNW4.8 kmh NNW 4.9 mph7.9 kmh 25.04 in848.0 mb 0.00 in0.0 mm 0.00 in0.0 mm 0.00 in0.0 mm
08:31 AM 51.8°F11.0°C -0.9°F-18.3°C 11% 4.0 mph N6.4 kmh N 5.4 mph8.7 kmh 25.04 in848.0 mb 0.00 in0.0 mm 0.00 in0.0 mm 0.00 in0.0 mm
08:26 AM 50.7°F10.4°C 3.2°F-16.0°C 14% 4.0 mph N6.4 kmh N 6.9 mph11.1 kmh 25.04 in848.0 mb 0.00 in0.0 mm 0.00 in0.0 mm 0.00 in0.0 mm
08:21 AM 50.5°F10.3°C 3.2°F-16.0°C 14% 4.0 mph NNE6.4 kmh NNE 6.3 mph10.1 kmh 25.04 in848.0 mb 0.00 in0.0 mm 0.00 in0.0 mm 0.00 in0.0 mm
08:16 AM 50.7°F10.4°C 3.2°F-16.0°C 14% 3.0 mph ENE4.8 kmh ENE 5.4 mph8.7 kmh 25.04 in848.0 mb 0.00 in0.0 mm 0.00 in0.0 mm 0.00 in0.0 mm
08:11 AM 49.8°F9.9°C 2.7°F-16.3°C 14% 1.0 mph ESE1.6 kmh ESE 4.5 mph7.2 kmh 25.04 in848.0 mb 0.00 in0.0 mm 0.00 in0.0 mm 0.00 in0.0 mm
08:06 AM 49.6°F9.8°C 2.5°F-16.4°C 14% 1.0 mph ESE1.6 kmh ESE 3.1 mph5.0 kmh 25.04 in848.0 mb 0.00 in0.0 mm 0.00 in0.0 mm 0.00 in0.0 mm
08:00 AM 48.9°F9.4°C 1.9°F-16.7°C 14% 1.0 mph ESE1.6 kmh ESE 3.6 mph5.8 kmh 25.04 in848.0 mb 0.00 in0.0 mm 0.00 in0.0 mm 0.00 in0.0 mm
07:55 AM 50.4°F10.2°C 3.0°F-16.1°C 14% Calm Calm 2.7 mph4.3 kmh 25.04 in848.0 mb 0.00 in0.0 mm 0.00 in0.0 mm 0.00 in0.0 mm
07:50 AM 49.5°F9.7°C 5.2°F-14.9°C 16% 1.0 mph ESE1.6 kmh ESE 3.6 mph5.8 kmh 25.04 in848.0 mb 0.00 in0.0 mm 0.00 in0.0 mm 0.00 in0.0 mm
07:45 AM 48.0°F8.9°C 3.9°F-15.6°C 16% 2.0 mph ESE3.2 kmh ESE 4.5 mph7.2 kmh 25.04 in848.0 mb 0.00 in0.0 mm 0.00 in0.0 mm 0.00 in0.0 mm
07:40 AM 47.3°F8.5°C 7.2°F-13.8°C 19% 1.0 mph ESE1.6 kmh ESE 4.5 mph7.2 kmh 25.04 in848.0 mb 0.00 in0.0 mm 0.00 in0.0 mm 0.00 in0.0 mm
07:35 AM 46.8°F8.2°C 10.0°F-12.2°C 22% Calm Calm 2.7 mph4.3 kmh 25.04 in848.0 mb 0.00 in0.0 mm 0.00 in0.0 mm 0.00 in0.0 mm
07:30 AM 46.0°F7.8°C 9.3°F-12.6°C 22% 1.0 mph ESE1.6 kmh ESE 2.7 mph4.3 kmh 25.04 in848.0 mb 0.00 in0.0 mm 0.00 in0.0 mm 0.00 in0.0 mm
07:25 AM 44.2°F6.8°C 7.9°F-13.4°C 22% 1.0 mph ESE1.6 kmh ESE 4.0 mph6.4 kmh 25.04 in848.0 mb 0.00 in0.0 mm 0.00 in0.0 mm 0.00 in0.0 mm
07:20 AM 43.2°F6.2°C 4.8°F-15.1°C 20% 1.0 mph ESE1.6 kmh ESE -- 25.04 in848.0 mb 0.00 in0.0 mm 0.00 in0.0 mm 0.00 in0.0 mm
07:15 AM 42.8°F6.0°C 4.5°F-15.3°C 20% 2.0 mph NE3.2 kmh NE 4.9 mph7.9 kmh 25.04 in848.0 mb 0.00 in0.0 mm 0.00 in0.0 mm 0.00 in0.0 mm
07:10 AM 44.4°F6.9°C 2.3°F-16.5°C 17% 3.0 mph NNW4.8 kmh NNW 4.9 mph7.9 kmh 25.04 in848.0 mb 0.00 in0.0 mm 0.00 in0.0 mm 0.00 in0.0 mm
07:05 AM 44.8°F7.1°C 2.7°F-16.3°C 17% 5.0 mph NNW8.0 kmh NNW 5.8 mph9.3 kmh 25.04 in848.0 mb 0.00 in0.0 mm 0.00 in0.0 mm 0.00 in0.0 mm
07:00 AM 45.1°F7.3°C 3.0°F-16.1°C 17% 5.0 mph NW8.0 kmh NW 7.4 mph11.9 kmh 25.04 in848.0 mb 0.00 in0.0 mm 0.00 in0.0 mm 0.00 in0.0 mm
06:55 AM 45.1°F7.3°C 3.0°F-16.1°C 17% 5.0 mph NW8.0 kmh NW 7.4 mph11.9 kmh 25.04 in848.0 mb 0.00 in0.0 mm 0.00 in0.0 mm 0.00 in0.0 mm
06:50 AM 45.0°F7.2°C 2.8°F-16.2°C 17% 4.0 mph NNW6.4 kmh NNW 8.7 mph14.0 kmh 25.04 in848.0 mb 0.00 in0.0 mm 0.00 in0.0 mm 0.00 in0.0 mm
06:45 AM 44.6°F7.0°C 2.5°F-16.4°C 17% 3.0 mph N4.8 kmh N 6.3 mph10.1 kmh 25.04 in848.0 mb 0.00 in0.0 mm 0.00 in0.0 mm 0.00 in0.0 mm
06:40 AM 44.2°F6.8°C 2.3°F-16.5°C 17% 2.0 mph NNE3.2 kmh NNE 4.9 mph7.9 kmh 25.04 in848.0 mb 0.00 in0.0 mm 0.00 in0.0 mm 0.00 in0.0 mm
06:35 AM 44.1°F6.7°C 2.1°F-16.6°C 17% 2.0 mph NE3.2 kmh NE 5.4 mph8.7 kmh 25.01 in846.9 mb 0.00 in0.0 mm 0.00 in0.0 mm 0.00 in0.0 mm
06:30 AM 44.4°F6.9°C -0.2°F-17.9°C 15% 2.0 mph NE3.2 kmh NE 4.0 mph6.4 kmh 25.01 in846.9 mb 0.00 in0.0 mm 0.00 in0.0 mm 0.00 in0.0 mm
06:25 AM 44.4°F6.9°C -0.2°F-17.9°C 15% 2.0 mph NE3.2 kmh NE 4.0 mph6.4 kmh 25.01 in846.9 mb 0.00 in0.0 mm 0.00 in0.0 mm 0.00 in0.0 mm
06:20 AM 45.0°F7.2°C 0.1°F-17.7°C 15% 4.0 mph NNE6.4 kmh NNE 4.9 mph7.9 kmh 25.01 in846.9 mb 0.00 in0.0 mm 0.00 in0.0 mm 0.00 in0.0 mm
06:15 AM 45.3°F7.4°C 0.5°F-17.5°C 15% 6.0 mph N9.7 kmh N 9.6 mph15.4 kmh 25.01 in846.9 mb 0.00 in0.0 mm 0.00 in0.0 mm 0.00 in0.0 mm
06:10 AM 45.5°F7.5°C -0.9°F-18.3°C 14% 7.0 mph N11.3 kmh N 10.1 mph16.3 kmh 25.01 in846.9 mb 0.00 in0.0 mm 0.00 in0.0 mm 0.00 in0.0 mm
06:05 AM 45.7°F7.6°C -0.8°F-18.2°C 14% 7.0 mph N11.3 kmh N 10.5 mph16.9 kmh 25.04 in848.0 mb 0.00 in0.0 mm 0.00 in0.0 mm 0.00 in0.0 mm
06:00 AM 46.0°F7.8°C -0.4°F-18.0°C 14% 7.0 mph N11.3 kmh N 10.5 mph16.9 kmh 25.04 in848.0 mb 0.00 in0.0 mm 0.00 in0.0 mm 0.00 in0.0 mm
05:55 AM 45.9°F7.7°C -0.6°F-18.1°C 14% 8.0 mph N12.9 kmh N 11.0 mph17.7 kmh 25.04 in848.0 mb 0.00 in0.0 mm 0.00 in0.0 mm 0.00 in0.0 mm
05:50 AM 45.9°F7.7°C -0.6°F-18.1°C 14% 8.0 mph N12.9 kmh N 12.5 mph20.1 kmh 25.04 in848.0 mb 0.00 in0.0 mm 0.00 in0.0 mm 0.00 in0.0 mm
05:45 AM 46.0°F7.8°C -0.4°F-18.0°C 14% 6.0 mph NNW9.7 kmh NNW 12.5 mph20.1 kmh 25.04 in848.0 mb 0.00 in0.0 mm 0.00 in0.0 mm 0.00 in0.0 mm
05:40 AM 44.4°F6.9°C -0.2°F-17.9°C 15% 4.0 mph NW6.4 kmh NW 7.4 mph11.9 kmh 25.04 in848.0 mb 0.00 in0.0 mm 0.00 in0.0 mm 0.00 in0.0 mm
05:35 AM 44.4°F6.9°C -0.2°F-17.9°C 15% 4.0 mph NNW6.4 kmh NNW 6.3 mph10.1 kmh 25.04 in848.0 mb 0.00 in0.0 mm 0.00 in0.0 mm 0.00 in0.0 mm
05:30 AM 43.9°F6.6°C 1.9°F-16.7°C 17% 4.0 mph NNW6.4 kmh NNW 5.8 mph9.3 kmh 25.04 in848.0 mb 0.00 in0.0 mm 0.00 in0.0 mm 0.00 in0.0 mm
05:25 AM 44.1°F6.7°C -0.6°F-18.1°C 15% 4.0 mph NNW6.4 kmh NNW 6.7 mph10.8 kmh 25.04 in848.0 mb 0.00 in0.0 mm 0.00 in0.0 mm 0.00 in0.0 mm
05:20 AM 44.4°F6.9°C 2.3°F-16.5°C 17% 4.0 mph NNW6.4 kmh NNW 5.8 mph9.3 kmh 25.04 in848.0 mb 0.00 in0.0 mm 0.00 in0.0 mm 0.00 in0.0 mm
05:15 AM 44.2°F6.8°C -0.4°F-18.0°C 15% 4.0 mph NNW6.4 kmh NNW 5.8 mph9.3 kmh 25.04 in848.0 mb 0.00 in0.0 mm 0.00 in0.0 mm 0.00 in0.0 mm
05:10 AM 44.2°F6.8°C -0.4°F-18.0°C 15% 4.0 mph N6.4 kmh N 5.4 mph8.7 kmh 25.04 in848.0 mb 0.00 in0.0 mm 0.00 in0.0 mm 0.00 in0.0 mm
05:05 AM 43.9°F6.6°C -0.8°F-18.2°C 15% 4.0 mph N6.4 kmh N 5.8 mph9.3 kmh 25.04 in848.0 mb 0.00 in0.0 mm 0.00 in0.0 mm 0.00 in0.0 mm
05:00 AM 44.1°F6.7°C -0.6°F-18.1°C 15% 4.0 mph NNE6.4 kmh NNE 5.4 mph8.7 kmh 25.04 in848.0 mb 0.00 in0.0 mm 0.00 in0.0 mm 0.00 in0.0 mm
04:55 AM 44.2°F6.8°C -0.4°F-18.0°C 15% 3.0 mph NNE4.8 kmh NNE 5.4 mph8.7 kmh 25.04 in848.0 mb 0.00 in0.0 mm 0.00 in0.0 mm 0.00 in0.0 mm
04:50 AM 44.6°F7.0°C -0.2°F-17.9°C 15% 2.0 mph NNE3.2 kmh NNE 4.9 mph7.9 kmh 25.04 in848.0 mb 0.00 in0.0 mm 0.00 in0.0 mm 0.00 in0.0 mm
04:45 AM 44.6°F7.0°C -0.2°F-17.9°C 15% 2.0 mph NNE3.2 kmh NNE 4.9 mph7.9 kmh 25.04 in848.0 mb 0.00 in0.0 mm 0.00 in0.0 mm 0.00 in0.0 mm
04:40 AM 45.9°F7.7°C -0.6°F-18.1°C 14% 4.0 mph N6.4 kmh N 4.5 mph7.2 kmh 25.04 in848.0 mb 0.00 in0.0 mm 0.00 in0.0 mm 0.00 in0.0 mm
04:35 AM 47.1°F8.4°C -2.9°F-19.4°C 12% 6.0 mph NNW9.7 kmh NNW 12.5 mph20.1 kmh 25.07 in849.0 mb 0.00 in0.0 mm 0.00 in0.0 mm 0.00 in0.0 mm
04:30 AM 46.9°F8.3°C 0.3°F-17.6°C 14% 6.0 mph NNW9.7 kmh NNW 8.3 mph13.4 kmh 25.07 in849.0 mb 0.00 in0.0 mm 0.00 in0.0 mm 0.00 in0.0 mm
04:25 AM 46.8°F8.2°C 0.1°F-17.7°C 14% 6.0 mph N9.7 kmh N 11.6 mph18.7 kmh 25.07 in849.0 mb 0.00 in0.0 mm 0.00 in0.0 mm 0.00 in0.0 mm
04:20 AM 46.6°F8.1°C 0.0°F-17.8°C 14% 5.0 mph NNW8.0 kmh NNW 11.0 mph17.7 kmh 25.07 in849.0 mb 0.00 in0.0 mm 0.00 in0.0 mm 0.00 in0.0 mm
04:15 AM 46.9°F8.3°C 0.3°F-17.6°C 14% 4.0 mph NNW6.4 kmh NNW 9.2 mph14.8 kmh 25.07 in849.0 mb 0.00 in0.0 mm 0.00 in0.0 mm 0.00 in0.0 mm
04:10 AM 46.6°F8.1°C 0.0°F-17.8°C 14% 4.0 mph NNW6.4 kmh NNW 6.7 mph10.8 kmh 25.07 in849.0 mb 0.00 in0.0 mm 0.00 in0.0 mm 0.00 in0.0 mm
04:05 AM 46.2°F7.9°C -0.2°F-17.9°C 14% 4.0 mph NNW6.4 kmh NNW 6.9 mph11.1 kmh 25.07 in849.0 mb 0.00 in0.0 mm 0.00 in0.0 mm 0.00 in0.0 mm
04:00 AM 45.7°F7.6°C -0.8°F-18.2°C 14% 3.0 mph N4.8 kmh N 6.3 mph10.1 kmh 25.07 in849.0 mb 0.00 in0.0 mm 0.00 in0.0 mm 0.00 in0.0 mm
03:55 AM 45.1°F7.3°C 0.3°F-17.6°C 15% 3.0 mph N4.8 kmh N 4.5 mph7.2 kmh 25.07 in849.0 mb 0.00 in0.0 mm 0.00 in0.0 mm 0.00 in0.0 mm
03:50 AM 46.2°F7.9°C -0.2°F-17.9°C 14% 3.0 mph N4.8 kmh N 6.3 mph10.1 kmh 25.07 in849.0 mb 0.00 in0.0 mm 0.00 in0.0 mm 0.00 in0.0 mm
03:45 AM 46.6°F8.1°C 0.0°F-17.8°C 14% 4.0 mph N6.4 kmh N 7.4 mph11.9 kmh 25.07 in849.0 mb 0.00 in0.0 mm 0.00 in0.0 mm 0.00 in0.0 mm
03:40 AM 47.1°F8.4°C 0.5°F-17.5°C 14% 5.0 mph NNW8.0 kmh NNW 6.7 mph10.8 kmh 25.07 in849.0 mb 0.00 in0.0 mm 0.00 in0.0 mm 0.00 in0.0 mm
03:35 AM 46.6°F8.1°C 4.1°F-15.5°C 17% 4.0 mph 6.4 kmh 8.7 mph14.0 kmh 25.07 in849.0 mb 0.00 in0.0 mm 0.00 in0.0 mm 0.00 in0.0 mm
03:30 AM 45.5°F7.5°C 3.2°F-16.0°C 17% 3.0 mph NNE4.8 kmh NNE 4.9 mph7.9 kmh 25.07 in849.0 mb 0.00 in0.0 mm 0.00 in0.0 mm 0.00 in0.0 mm
03:25 AM 45.0°F7.2°C 6.3°F-14.3°C 20% 2.0 mph NNE3.2 kmh NNE 4.0 mph6.4 kmh 25.07 in849.0 mb 0.00 in0.0 mm 0.00 in0.0 mm 0.00 in0.0 mm
03:20 AM 45.0°F7.2°C 6.3°F-14.3°C 20% 2.0 mph NNE3.2 kmh NNE 3.6 mph5.8 kmh 25.07 in849.0 mb 0.00 in0.0 mm 0.00 in0.0 mm 0.00 in0.0 mm
03:15 AM 43.7°F6.5°C 5.4°F-14.8°C 20% 4.0 mph NNE6.4 kmh NNE 5.4 mph8.7 kmh 25.07 in849.0 mb 0.00 in0.0 mm 0.00 in0.0 mm 0.00 in0.0 mm
03:10 AM 43.9°F6.6°C 5.4°F-14.8°C 20% 5.0 mph N8.0 kmh N 5.8 mph9.3 kmh 25.07 in849.0 mb 0.00 in0.0 mm 0.00 in0.0 mm 0.00 in0.0 mm
03:05 AM 44.2°F6.8°C 5.7°F-14.6°C 20% 3.0 mph NW4.8 kmh NW 5.8 mph9.3 kmh 25.07 in849.0 mb 0.00 in0.0 mm 0.00 in0.0 mm 0.00 in0.0 mm
03:00 AM 45.1°F7.3°C 6.4°F-14.2°C 20% 1.0 mph WSW1.6 kmh WSW 4.5 mph7.2 kmh 25.07 in849.0 mb 0.00 in0.0 mm 0.00 in0.0 mm 0.00 in0.0 mm
02:55 AM 45.0°F7.2°C 6.3°F-14.3°C 20% 1.0 mph WSW1.6 kmh WSW 4.0 mph6.4 kmh 25.07 in849.0 mb 0.00 in0.0 mm 0.00 in0.0 mm 0.00 in0.0 mm
02:50 AM 44.4°F6.9°C 5.9°F-14.5°C 20% 1.0 mph WSW1.6 kmh WSW 4.0 mph6.4 kmh 25.10 in850.0 mb 0.00 in0.0 mm 0.00 in0.0 mm 0.00 in0.0 mm
02:45 AM 45.0°F7.2°C 6.3°F-14.3°C 20% 1.0 mph WSW1.6 kmh WSW 4.0 mph6.4 kmh 25.10 in850.0 mb 0.00 in0.0 mm 0.00 in0.0 mm 0.00 in0.0 mm
02:40 AM 45.1°F7.3°C 6.4°F-14.2°C 20% Calm Calm 3.6 mph5.8 kmh 25.10 in850.0 mb 0.00 in0.0 mm 0.00 in0.0 mm 0.00 in0.0 mm
02:35 AM 45.7°F7.6°C 5.9°F-14.5°C 19% Calm Calm 4.0 mph6.4 kmh 25.10 in850.0 mb 0.00 in0.0 mm 0.00 in0.0 mm 0.00 in0.0 mm
02:30 AM 45.3°F7.4°C 6.6°F-14.1°C 20% Calm Calm -- 25.10 in850.0 mb 0.00 in0.0 mm 0.00 in0.0 mm 0.00 in0.0 mm
02:25 AM 45.5°F7.5°C 3.2°F-16.0°C 17% Calm Calm 3.6 mph5.8 kmh 25.10 in850.0 mb 0.00 in0.0 mm 0.00 in0.0 mm 0.00 in0.0 mm
02:20 AM 45.7°F7.6°C 5.9°F-14.5°C 19% Calm Calm -- 25.10 in850.0 mb 0.00 in0.0 mm 0.00 in0.0 mm 0.00 in0.0 mm
02:15 AM 45.3°F7.4°C 6.6°F-14.1°C 20% Calm Calm 3.6 mph5.8 kmh 25.10 in850.0 mb 0.00 in0.0 mm 0.00 in0.0 mm 0.00 in0.0 mm
02:09 AM 45.1°F7.3°C 3.0°F-16.1°C 17% Calm Calm -- 25.10 in850.0 mb 0.00 in0.0 mm 0.00 in0.0 mm 0.00 in0.0 mm
02:04 AM 45.1°F7.3°C 3.0°F-16.1°C 17% Calm Calm -- 25.10 in850.0 mb 0.00 in0.0 mm 0.00 in0.0 mm 0.00 in0.0 mm
01:59 AM 45.0°F7.2°C 2.8°F-16.2°C 17% Calm Calm 2.7 mph4.3 kmh 25.10 in850.0 mb 0.00 in0.0 mm 0.00 in0.0 mm 0.00 in0.0 mm
01:54 AM 45.1°F7.3°C 3.0°F-16.1°C 17% 2.0 mph WSW3.2 kmh WSW 4.5 mph7.2 kmh 25.10 in850.0 mb 0.00 in0.0 mm 0.00 in0.0 mm 0.00 in0.0 mm
01:49 AM 46.0°F7.8°C -0.4°F-18.0°C 14% 2.0 mph WSW3.2 kmh WSW 4.5 mph7.2 kmh 25.10 in850.0 mb 0.00 in0.0 mm 0.00 in0.0 mm 0.00 in0.0 mm
01:44 AM 46.6°F8.1°C 0.0°F-17.8°C 14% 2.0 mph SW3.2 kmh SW 4.5 mph7.2 kmh 25.10 in850.0 mb 0.00 in0.0 mm 0.00 in0.0 mm 0.00 in0.0 mm
01:39 AM 47.1°F8.4°C 0.5°F-17.5°C 14% 1.0 mph SSW1.6 kmh SSW 5.4 mph8.7 kmh 25.10 in850.0 mb 0.00 in0.0 mm 0.00 in0.0 mm 0.00 in0.0 mm
01:34 AM 46.2°F7.9°C -0.2°F-17.9°C 14% 1.0 mph S1.6 kmh S 3.1 mph5.0 kmh 25.10 in850.0 mb 0.00 in0.0 mm 0.00 in0.0 mm 0.00 in0.0 mm
01:29 AM 45.9°F7.7°C -0.6°F-18.1°C 14% Calm Calm 4.0 mph6.4 kmh 25.10 in850.0 mb 0.00 in0.0 mm 0.00 in0.0 mm 0.00 in0.0 mm
01:24 AM 46.8°F8.2°C 0.1°F-17.7°C 14% Calm Calm 3.1 mph5.0 kmh 25.10 in850.0 mb 0.00 in0.0 mm 0.00 in0.0 mm 0.00 in0.0 mm
01:19 AM 46.9°F8.3°C -2.9°F-19.4°C 12% 1.0 mph S1.6 kmh S 3.6 mph5.8 kmh 25.10 in850.0 mb 0.00 in0.0 mm 0.00 in0.0 mm 0.00 in0.0 mm
01:14 AM 47.3°F8.5°C -2.7°F-19.3°C 12% 1.0 mph S1.6 kmh S 3.6 mph5.8 kmh 25.10 in850.0 mb 0.00 in0.0 mm 0.00 in0.0 mm 0.00 in0.0 mm
01:09 AM 47.1°F8.4°C -2.9°F-19.4°C 12% 1.0 mph S1.6 kmh S 3.1 mph5.0 kmh 25.10 in850.0 mb 0.00 in0.0 mm 0.00 in0.0 mm 0.00 in0.0 mm
01:04 AM 47.1°F8.4°C -2.9°F-19.4°C 12% 2.0 mph S3.2 kmh S 3.1 mph5.0 kmh 25.10 in850.0 mb 0.00 in0.0 mm 0.00 in0.0 mm 0.00 in0.0 mm
12:59 AM 47.3°F8.5°C -4.5°F-20.3°C 11% 3.0 mph S4.8 kmh S 4.5 mph7.2 kmh 25.10 in850.0 mb 0.00 in0.0 mm 0.00 in0.0 mm 0.00 in0.0 mm
12:54 AM 47.8°F8.8°C -5537.2°C - 3.0 mph S4.8 kmh S 4.5 mph7.2 kmh 25.10 in850.0 mb 0.00 in0.0 mm 0.00 in0.0 mm 0.00 in0.0 mm
12:49 AM 48.6°F9.2°C -5537.2°C - 2.0 mph SSW3.2 kmh SSW 4.0 mph6.4 kmh 25.10 in850.0 mb 0.00 in0.0 mm 0.00 in0.0 mm 0.00 in0.0 mm
12:44 AM 49.6°F9.8°C -5537.2°C - 2.0 mph NW3.2 kmh NW 5.8 mph9.3 kmh 25.10 in850.0 mb 0.00 in0.0 mm 0.00 in0.0 mm 0.00 in0.0 mm
12:39 AM 50.5°F10.3°C -5537.2°C - 4.0 mph NW6.4 kmh NW 4.5 mph7.2 kmh 25.10 in850.0 mb 0.00 in0.0 mm 0.00 in0.0 mm 0.00 in0.0 mm
12:34 AM 51.4°F10.8°C -5537.2°C - 5.0 mph NW8.0 kmh NW 8.3 mph13.4 kmh 25.10 in850.0 mb 0.00 in0.0 mm 0.00 in0.0 mm 0.00 in0.0 mm
12:29 AM 51.1°F10.6°C -5537.2°C - 5.0 mph WNW8.0 kmh WNW 8.3 mph13.4 kmh 25.10 in850.0 mb 0.00 in0.0 mm 0.00 in0.0 mm 0.00 in0.0 mm
12:24 AM 52.2°F11.2°C -5537.2°C - 4.0 mph NW6.4 kmh NW 6.7 mph10.8 kmh 25.10 in850.0 mb 0.00 in0.0 mm 0.00 in0.0 mm 0.00 in0.0 mm
12:19 AM 52.0°F11.1°C -5537.2°C - 2.0 mph ENE3.2 kmh ENE 8.7 mph14.0 kmh 25.10 in850.0 mb 0.00 in0.0 mm 0.00 in0.0 mm 0.00 in0.0 mm
12:14 AM 51.3°F10.7°C -5537.2°C - Calm Calm 3.6 mph5.8 kmh 25.10 in850.0 mb 0.00 in0.0 mm 0.00 in0.0 mm 0.00 in0.0 mm
12:09 AM 51.3°F10.7°C -5537.2°C - Calm Calm 3.1 mph5.0 kmh 25.10 in850.0 mb 0.00 in0.0 mm 0.00 in0.0 mm 0.00 in0.0 mm
12:04 AM 51.3°F10.7°C -5537.2°C - Calm Calm 3.6 mph5.8 kmh 25.10 in850.0 mb 0.00 in0.0 mm 0.00 in0.0 mm 0.00 in0.0 mm